Time;durP1;ratioP1;P1;durP2;ratioP2;P2;SDS_P1;SDS_P2;PMS_P1;PMS_P2;Temp;Humidity;BMP_temperature;BMP_pressure;BME280_temperature;BME280_humidity;BME280_pressure;Samples;Min_cycle;Max_cycle;Signal;HPM_P1;HPM_P2
2022/04/15 00:00:43;;;;;;;14.98;4.10;;;5.30;99.90;5.90;98673.00;;;;4635309;30;87260;-53
2022/04/15 00:03:11;;;;;;;23.83;5.68;;;5.30;99.90;5.80;98671.00;;;;4634342;30;86863;-56
2022/04/15 00:05:40;;;;;;;20.63;5.65;;;5.30;99.90;5.80;98673.00;;;;4635056;30;86977;-54
2022/04/15 00:08:11;;;;;;;26.77;5.70;;;5.30;99.90;5.80;98677.00;;;;4635291;30;87024;-56
2022/04/15 00:10:45;;;;;;;18.17;4.70;;;5.30;99.90;5.80;98670.00;;;;4634898;30;88669;-55
2022/04/15 00:13:13;;;;;;;18.90;4.50;;;5.30;99.90;5.80;98655.00;;;;4645619;30;86932;-54
2022/04/15 00:15:41;;;;;;;17.58;3.80;;;5.30;99.90;5.80;98661.00;;;;4634085;30;87477;-56
2022/04/15 00:18:08;;;;;;;13.90;3.85;;;5.30;99.90;5.80;98663.00;;;;4635446;30;87768;-56
2022/04/15 00:20:34;;;;;;;18.70;4.38;;;5.30;99.90;5.90;98656.00;;;;4635269;30;87330;-56
2022/04/15 00:23:02;;;;;;;12.02;4.55;;;5.30;99.90;5.90;98646.00;;;;4635202;30;86967;-54
2022/04/15 00:25:28;;;;;;;15.55;3.92;;;5.40;99.90;5.90;98647.00;;;;4637563;30;87289;-56
2022/04/15 00:27:54;;;;;;;8.98;3.55;;;5.40;99.90;5.90;98655.00;;;;4635291;30;86856;-54
2022/04/15 00:30:21;;;;;;;13.70;3.88;;;5.40;99.90;5.90;98644.00;;;;4633736;30;87641;-54
2022/04/15 00:32:47;;;;;;;16.25;4.70;;;5.30;99.90;5.90;98657.00;;;;4634765;30;87611;-54
2022/04/15 00:35:13;;;;;;;15.77;4.25;;;5.40;99.90;5.90;98655.00;;;;4634672;30;88518;-51
2022/04/15 00:37:39;;;;;;;13.85;3.97;;;5.40;99.90;5.80;98645.00;;;;4635144;30;88784;-53
2022/04/15 00:40:09;;;;;;;18.92;5.00;;;5.30;99.90;5.80;98640.00;;;;4634317;30;87544;-52
2022/04/15 00:42:36;;;;;;;19.85;5.18;;;5.30;99.90;5.80;98648.00;;;;4635292;30;87031;-55
2022/04/15 00:45:04;;;;;;;12.13;4.35;;;5.20;99.90;5.80;98651.00;;;;4634797;30;87092;-54
2022/04/15 00:47:51;;;;;;;12.65;4.72;;;5.30;99.90;5.80;98654.00;;;;4634781;30;87795;-55
2022/04/15 00:50:23;;;;;;;15.10;3.55;;;5.30;99.90;5.90;98646.00;;;;4634540;30;87307;-54
2022/04/15 00:52:53;;;;;;;13.25;4.15;;;5.40;99.90;5.90;98646.00;;;;4635405;30;86843;-54
2022/04/15 00:55:22;;;;;;;15.60;4.80;;;5.40;99.90;5.90;98655.00;;;;4634107;30;87082;-54
2022/04/15 00:58:00;;;;;;;12.93;4.30;;;5.30;99.90;6.00;98660.00;;;;4634790;30;87825;-54
2022/04/15 01:00:29;;;;;;;15.38;5.05;;;5.40;99.90;5.90;98656.00;;;;4633909;30;87960;-53
2022/04/15 01:03:01;;;;;;;18.42;5.38;;;5.40;99.90;6.00;98669.00;;;;4634296;30;87030;-54
2022/04/15 01:05:28;;;;;;;19.20;6.03;;;5.40;99.90;5.90;98654.00;;;;4634711;30;87364;-56
2022/04/15 01:07:57;;;;;;;19.83;5.75;;;5.40;99.90;6.00;98660.00;;;;4634741;30;87472;-54
2022/04/15 01:10:26;;;;;;;15.35;5.95;;;5.40;99.90;6.00;98659.00;;;;4634096;30;88457;-53
2022/04/15 01:12:57;;;;;;;13.48;5.20;;;5.40;99.90;6.00;98661.00;;;;4644595;30;87810;-54
2022/04/15 01:15:28;;;;;;;19.30;6.13;;;5.40;99.90;6.10;98656.00;;;;4634376;30;87205;-53
2022/04/15 01:17:54;;;;;;;16.10;6.30;;;5.50;99.90;6.10;98649.00;;;;4634214;30;86435;-55
2022/04/15 01:20:21;;;;;;;13.35;5.60;;;5.50;99.90;6.10;98645.00;;;;4633838;30;88298;-55
2022/04/15 01:23:10;;;;;;;18.88;6.15;;;5.50;99.90;6.10;98650.00;;;;4634749;30;87061;-55
2022/04/15 01:25:38;;;;;;;19.23;6.13;;;5.50;99.90;6.10;98638.00;;;;4637551;30;88573;-53
2022/04/15 01:28:05;;;;;;;18.75;6.07;;;5.40;99.90;6.10;98651.00;;;;4633746;30;87849;-56
2022/04/15 01:30:31;;;;;;;16.20;6.13;;;5.40;99.90;6.10;98645.00;;;;4632680;30;87265;-55
2022/04/15 01:32:57;;;;;;;12.20;5.20;;;5.50;99.90;6.10;98647.00;;;;4635145;30;87552;-56
2022/04/15 01:35:23;;;;;;;11.85;5.07;;;5.50;99.90;6.10;98640.00;;;;4634460;30;87143;-55
2022/04/15 01:37:50;;;;;;;12.90;4.88;;;5.40;99.90;6.00;98637.00;;;;4633778;30;87541;-55
2022/04/15 01:40:18;;;;;;;19.20;5.80;;;5.40;99.90;6.00;98634.00;;;;4615754;30;89725;-52
2022/04/15 01:42:47;;;;;;;13.48;5.05;;;5.40;99.90;6.00;98637.00;;;;4634323;30;86252;-53
2022/04/15 01:45:14;;;;;;;18.40;5.93;;;5.40;99.90;6.00;98636.00;;;;4633242;30;87617;-53
2022/04/15 01:47:40;;;;;;;18.63;5.78;;;5.30;99.90;6.00;98643.00;;;;4633785;30;87867;-54
2022/04/15 01:50:08;;;;;;;17.45;5.00;;;5.30;99.90;6.00;98643.00;;;;4633231;30;88519;-56
2022/04/15 01:52:35;;;;;;;12.60;5.00;;;5.30;99.90;6.00;98623.00;;;;4634117;30;86930;-53
2022/04/15 01:55:01;;;;;;;17.77;5.35;;;5.30;99.90;6.00;98625.00;;;;4634157;30;87105;-55
2022/04/15 01:57:29;;;;;;;13.63;5.57;;;5.30;99.90;6.00;98620.00;;;;4633128;30;87661;-55
2022/04/15 01:59:55;;;;;;;19.02;5.60;;;5.30;99.90;5.90;98622.00;;;;4634096;30;87181;-55
2022/04/15 02:02:21;;;;;;;16.98;5.55;;;5.30;99.90;5.90;98627.00;;;;4634228;30;87410;-56
2022/04/15 02:04:47;;;;;;;11.65;5.25;;;5.20;99.90;5.90;98622.00;;;;4633743;30;87124;-56
2022/04/15 02:07:13;;;;;;;14.57;4.78;;;5.30;99.90;5.90;98622.00;;;;4634250;30;86961;-56
2022/04/15 02:09:40;;;;;;;20.50;6.03;;;5.20;99.90;5.90;98615.00;;;;4633799;30;87395;-54
2022/04/15 02:12:06;;;;;;;23.13;6.68;;;5.20;99.90;5.80;98612.00;;;;4641308;30;87119;-54
2022/04/15 02:14:33;;;;;;;12.75;5.13;;;5.10;99.90;5.80;98609.00;;;;4635710;30;87937;-51
2022/04/15 02:16:59;;;;;;;12.07;5.10;;;5.20;99.90;5.80;98616.00;;;;4633060;30;87754;-56
2022/04/15 02:19:25;;;;;;;15.48;4.22;;;5.20;99.90;5.90;98613.00;;;;4633236;30;88436;-55
2022/04/15 02:21:51;;;;;;;12.73;4.57;;;5.30;99.90;5.90;98621.00;;;;4634041;30;87059;-55
2022/04/15 02:24:17;;;;;;;13.68;4.45;;;5.30;99.90;5.90;98618.00;;;;4637411;30;87049;-51
2022/04/15 02:26:44;;;;;;;10.68;4.50;;;5.30;99.90;6.00;98619.00;;;;4633405;30;87813;-56
2022/04/15 02:29:10;;;;;;;11.52;4.40;;;5.40;99.90;6.00;98621.00;;;;4632925;30;87306;-56
2022/04/15 02:31:37;;;;;;;8.40;4.00;;;5.40;99.90;6.00;98629.00;;;;4633092;30;87280;-56
2022/04/15 02:34:03;;;;;;;16.15;5.03;;;5.40;99.90;6.00;98618.00;;;;4631859;30;87748;-55
2022/04/15 02:36:30;;;;;;;18.73;5.45;;;5.40;99.90;6.00;98617.00;;;;4633066;30;87680;-56
2022/04/15 02:38:56;;;;;;;12.13;4.88;;;5.40;99.90;6.00;98619.00;;;;4632973;30;88514;-61
2022/04/15 02:41:22;;;;;;;18.35;5.18;;;5.40;99.90;6.10;98622.00;;;;4633669;30;87375;-54
2022/04/15 02:43:48;;;;;;;17.13;4.70;;;5.40;99.90;6.10;98625.00;;;;4632842;30;87131;-54
2022/04/15 02:46:15;;;;;;;17.77;4.65;;;5.40;99.90;6.10;98620.00;;;;4646311;30;88742;-65
2022/04/15 02:48:42;;;;;;;15.10;4.65;;;5.40;99.90;6.10;98619.00;;;;4617717;30;87754;-65
2022/04/15 02:51:08;;;;;;;12.93;4.00;;;5.40;99.90;6.10;98621.00;;;;4630563;30;89597;-57
2022/04/15 02:53:34;;;;;;;20.23;5.15;;;5.40;99.90;6.10;98627.00;;;;4632507;30;87047;-56
2022/04/15 02:56:01;;;;;;;22.75;6.28;;;5.40;99.90;6.10;98617.00;;;;4633589;30;86829;-53
2022/04/15 02:58:27;;;;;;;10.85;5.18;;;5.40;99.90;6.10;98610.00;;;;4633046;30;87539;-51
2022/04/15 03:00:53;;;;;;;22.38;6.10;;;5.50;99.90;6.10;98617.00;;;;4632223;30;87081;-55
2022/04/15 03:03:19;;;;;;;27.00;5.63;;;5.50;99.90;6.10;98620.00;;;;4632074;30;88403;-56
2022/04/15 03:05:45;;;;;;;26.48;6.45;;;5.40;99.90;6.10;98616.00;;;;4632562;30;87702;-56
2022/04/15 03:08:11;;;;;;;23.08;7.97;;;5.40;99.90;6.10;98618.00;;;;4631375;30;87483;-54
2022/04/15 03:10:38;;;;;;;25.52;7.55;;;5.40;99.90;6.10;98624.00;;;;4633539;30;87281;-54
2022/04/15 03:13:04;;;;;;;24.58;7.80;;;5.40;99.90;6.20;98620.00;;;;4642677;30;87113;-62
2022/04/15 03:15:30;;;;;;;26.42;8.05;;;5.40;99.90;6.20;98622.00;;;;4632485;30;88706;-62
2022/04/15 03:17:56;;;;;;;22.35;6.50;;;5.40;99.90;6.20;98620.00;;;;4632319;30;89034;-62
2022/04/15 03:20:23;;;;;;;21.10;5.72;;;5.50;99.90;6.40;98614.00;;;;4633197;30;86291;-62
2022/04/15 03:22:49;;;;;;;21.30;6.55;;;5.60;99.90;6.80;98614.00;;;;4632704;30;87377;-62
2022/04/15 03:25:17;;;;;;;21.60;6.07;;;5.80;99.90;7.10;98620.00;;;;4634241;30;89823;-63
2022/04/15 03:27:45;;;;;;;21.73;6.03;;;6.10;99.90;7.40;98613.00;;;;4631813;30;88382;-62
2022/04/15 03:30:12;;;;;;;21.95;6.30;;;6.30;99.90;7.70;98608.00;;;;4631943;30;87099;-63
2022/04/15 03:32:49;;;;;;;20.00;5.30;;;6.50;99.90;8.30;98597.00;;;;4631441;30;87416;-62
2022/04/15 03:35:16;;;;;;;23.67;6.13;;;7.00;99.90;9.00;98612.00;;;;4632693;30;87858;-62
2022/04/15 03:37:42;;;;;;;30.08;6.97;;;7.40;99.90;9.20;98615.00;;;;4632058;30;87579;-63
2022/04/15 03:40:09;;;;;;;22.35;6.82;;;7.70;99.90;9.50;98612.00;;;;4632371;30;87231;-62
2022/04/15 03:42:47;;;;;;;27.70;6.28;;;8.00;99.90;9.50;98611.00;;;;4632848;30;87025;-62
2022/04/15 03:45:19;;;;;;;19.50;6.45;;;8.10;99.90;9.40;98603.00;;;;4632599;30;86964;-62
2022/04/15 03:47:56;;;;;;;26.30;7.05;;;8.00;99.90;9.30;98608.00;;;;4631490;30;87084;-62
2022/04/15 03:50:22;;;;;;;16.70;5.25;;;8.00;99.90;9.20;98601.00;;;;4632141;30;87566;-61
2022/04/15 03:52:50;;;;;;;16.90;5.10;;;8.00;99.90;9.20;98602.00;;;;4629995;30;88154;-62
2022/04/15 03:55:21;;;;;;;19.00;6.07;;;8.00;99.90;9.40;98610.00;;;;4630476;30;87577;-61
2022/04/15 03:57:48;;;;;;;;;;;8.00;99.90;9.30;98609.00;;;;4630338;30;87668;-63
2022/04/15 04:00:17;;;;;;;26.55;7.30;;;8.00;99.90;9.20;98614.00;;;;4644770;30;87311;-62
2022/04/15 04:02:45;;;;;;;17.95;5.50;;;8.00;99.90;9.00;98614.00;;;;4630626;30;87499;-63
2022/04/15 04:05:13;;;;;;;29.17;5.93;;;7.90;99.90;8.90;98622.00;;;;4629369;30;88390;-62
2022/04/15 04:07:40;;;;;;;27.25;5.82;;;7.80;99.90;8.80;98605.00;;;;4630297;30;88656;-61
2022/04/15 04:10:07;;;;;;;24.25;7.28;;;7.80;99.90;8.70;98601.00;;;;4631147;30;86579;-62
2022/04/15 04:12:34;;;;;;;20.33;5.75;;;7.70;99.90;8.70;98611.00;;;;4641752;30;87511;-63
2022/04/15 04:15:06;;;;;;;20.63;5.97;;;7.70;99.90;8.60;98615.00;;;;4632132;30;87606;-62
2022/04/15 04:17:33;;;;;;;33.83;6.68;;;7.70;99.90;8.50;98616.00;;;;4631199;30;89394;-61
2022/04/15 04:20:01;;;;;;;26.38;6.20;;;7.70;99.90;8.50;98616.00;;;;4618530;30;87104;-62
2022/04/15 04:22:32;;;;;;;16.73;4.93;;;7.60;99.90;8.40;98620.00;;;;4635681;30;87041;-63
2022/04/15 04:24:58;;;;;;;21.63;5.43;;;7.60;99.90;8.40;98605.00;;;;4640380;30;88027;-62
2022/04/15 04:27:24;;;;;;;29.25;5.60;;;7.60;99.90;8.30;98610.00;;;;4634591;30;87338;-62
2022/04/15 04:29:51;;;;;;;30.30;6.78;;;7.50;99.90;8.20;98607.00;;;;4632629;30;87148;-63
2022/04/15 04:32:19;;;;;;;27.98;7.05;;;7.40;99.90;8.20;98602.00;;;;4635572;30;87440;-61
2022/04/15 04:34:45;;;;;;;36.70;6.25;;;7.40;99.90;8.10;98609.00;;;;4634913;30;87981;-62
2022/04/15 04:37:12;;;;;;;28.60;6.47;;;7.40;99.90;8.20;98600.00;;;;4634419;30;86992;-62
2022/04/15 04:39:38;;;;;;;32.42;6.13;;;7.40;99.90;8.10;98603.00;;;;4634466;30;87301;-62
2022/04/15 04:42:06;;;;;;;26.50;5.35;;;7.30;99.90;8.10;98601.00;;;;4634421;30;87984;-62
2022/04/15 04:44:32;;;;;;;20.42;5.22;;;7.30;99.90;8.10;98598.00;;;;4633511;30;87658;-62
2022/04/15 04:46:59;;;;;;;27.98;5.95;;;7.40;99.90;8.20;98596.00;;;;4634012;30;88685;-62
2022/04/15 04:49:26;;;;;;;16.67;4.53;;;7.40;99.90;8.20;98596.00;;;;4633720;30;87015;-65
2022/04/15 04:51:53;;;;;;;13.60;3.72;;;7.40;99.90;8.20;98611.00;;;;4634941;30;87014;-65
2022/04/15 04:54:20;;;;;;;7.82;3.13;;;7.40;99.90;8.20;98606.00;;;;4636280;30;87177;-55
2022/04/15 04:56:46;;;;;;;15.55;3.10;;;7.40;99.90;8.20;98607.00;;;;4634467;30;87794;-52
2022/04/15 04:59:12;;;;;;;12.20;3.47;;;7.50;99.90;8.30;98611.00;;;;4633546;30;86661;-54
2022/04/15 05:01:38;;;;;;;13.13;2.70;;;7.50;99.90;8.20;98613.00;;;;4634133;30;87147;-58
2022/04/15 05:04:04;;;;;;;13.68;3.00;;;7.50;99.90;8.20;98603.00;;;;4636796;30;88560;-52
2022/04/15 05:06:30;;;;;;;14.07;3.00;;;7.50;99.90;8.20;98605.00;;;;4638871;30;87977;-55
2022/04/15 05:08:56;;;;;;;8.80;2.47;;;7.40;99.90;8.30;98599.00;;;;4637455;30;87135;-57
2022/04/15 05:11:22;;;;;;;11.32;2.90;;;7.50;99.90;8.30;98608.00;;;;4634046;30;87091;-55
2022/04/15 05:13:50;;;;;;;10.48;3.15;;;7.50;99.90;8.30;98600.00;;;;4637082;30;87978;-55
2022/04/15 05:16:16;;;;;;;16.17;3.65;;;7.50;99.90;8.40;98618.00;;;;4645415;30;87988;-55
2022/04/15 05:18:43;;;;;;;13.70;3.80;;;7.60;99.90;8.50;98606.00;;;;4637389;30;87405;-54
2022/04/15 05:21:09;;;;;;;21.52;5.18;;;7.60;99.90;8.60;98608.00;;;;4637436;30;87032;-55
2022/04/15 05:23:35;;;;;;;16.20;4.22;;;7.70;99.90;8.70;98600.00;;;;4647755;30;86982;-54
2022/04/15 05:26:01;;;;;;;14.55;3.50;;;7.80;99.90;8.80;98599.00;;;;4632394;30;87724;-56
2022/04/15 05:28:28;;;;;;;19.13;3.95;;;7.90;99.90;8.80;98595.00;;;;4632695;30;87239;-56
2022/04/15 05:30:54;;;;;;;12.13;2.83;;;8.00;99.90;8.90;98599.00;;;;4629059;30;88078;-57
2022/04/15 05:33:20;;;;;;;14.57;2.78;;;8.00;99.90;8.90;98599.00;;;;4634866;30;88593;-54
2022/04/15 05:35:46;;;;;;;15.05;2.90;;;8.10;99.90;9.00;98596.00;;;;4634604;30;89425;-53
2022/04/15 05:38:12;;;;;;;11.35;2.60;;;8.20;99.90;9.10;98601.00;;;;4636872;30;86922;-57
2022/04/15 05:40:38;;;;;;;10.68;2.72;;;8.20;99.90;9.00;98604.00;;;;4635085;30;86991;-56
2022/04/15 05:43:05;;;;;;;9.98;2.30;;;8.20;99.90;9.00;98597.00;;;;4648061;30;87321;-56
2022/04/15 05:45:31;;;;;;;5.35;2.42;;;8.20;99.90;9.10;98596.00;;;;4642670;30;87311;-54
2022/04/15 05:47:58;;;;;;;10.88;2.53;;;8.30;99.90;9.10;98601.00;;;;4636041;30;86657;-55
2022/04/15 05:50:25;;;;;;;10.57;2.92;;;8.30;99.90;9.10;98600.00;;;;4641156;30;87128;-57
2022/04/15 05:52:51;;;;;;;11.88;3.20;;;8.30;99.90;9.30;98602.00;;;;4643295;30;87666;-57
2022/04/15 05:55:17;;;;;;;10.90;2.35;;;8.40;99.90;9.40;98609.00;;;;4643120;30;87920;-59
2022/04/15 05:57:43;;;;;;;16.70;3.10;;;8.40;99.90;9.50;98610.00;;;;4640125;30;86929;-55
2022/04/15 06:00:10;;;;;;;11.35;3.47;;;8.60;99.90;9.60;98608.00;;;;4638651;30;88424;-56
2022/04/15 06:02:39;;;;;;;12.23;3.45;;;8.70;99.90;9.70;98609.00;;;;4641527;30;88788;-55
2022/04/15 06:05:07;;;;;;;16.15;3.10;;;8.80;99.90;9.80;98600.00;;;;4633832;30;87212;-55
2022/04/15 06:07:34;;;;;;;9.35;3.15;;;8.80;99.90;9.80;98602.00;;;;4637856;30;87192;-54
2022/04/15 06:10:00;;;;;;;15.60;3.22;;;8.90;99.90;9.90;98601.00;;;;4635183;30;87031;-54
2022/04/15 06:13:03;;;;;;;12.15;3.60;;;9.00;99.90;10.00;98594.00;;;;4651258;30;89410;-53
2022/04/15 06:15:33;;;;;;;11.77;3.40;;;9.00;99.90;10.00;98599.00;;;;4638986;30;87696;-58
2022/04/15 06:18:03;;;;;;;13.07;3.67;;;9.10;99.90;10.20;98598.00;;;;4639327;30;87098;-56
2022/04/15 06:20:30;;;;;;;13.63;3.30;;;9.10;99.90;10.30;98600.00;;;;4640288;30;88363;-58
2022/04/15 06:22:57;;;;;;;10.77;3.78;;;9.20;99.90;10.20;98603.00;;;;4642762;30;88659;-56
2022/04/15 06:25:24;;;;;;;12.70;3.45;;;9.10;99.90;10.20;98599.00;;;;4641831;30;87175;-56
2022/04/15 06:27:51;;;;;;;10.65;3.38;;;9.10;99.90;10.20;98608.00;;;;4639590;30;87908;-54
2022/04/15 06:30:20;;;;;;;11.07;3.65;;;9.10;99.90;10.20;98605.00;;;;4633453;30;87133;-54
2022/04/15 06:32:46;;;;;;;9.55;3.50;;;9.10;99.90;10.20;98598.00;;;;4632821;30;87695;-55
2022/04/15 06:35:12;;;;;;;13.88;4.10;;;9.10;99.90;10.20;98594.00;;;;4633942;30;87332;-55
2022/04/15 06:37:38;;;;;;;9.95;3.17;;;9.20;99.90;10.30;98594.00;;;;4634222;30;86724;-62
2022/04/15 06:40:05;;;;;;;11.80;3.75;;;9.30;99.90;10.40;98588.00;;;;4633967;30;87173;-56
2022/04/15 06:42:32;;;;;;;12.18;3.80;;;9.40;99.90;10.30;98592.00;;;;4632352;30;87603;-56
2022/04/15 06:44:59;;;;;;;14.40;3.70;;;9.40;99.90;10.30;98595.00;;;;4635766;30;89332;-55
2022/04/15 06:47:25;;;;;;;14.27;3.72;;;9.30;99.90;10.20;98590.00;;;;4638099;30;87123;-57
2022/04/15 06:49:51;;;;;;;14.00;4.53;;;9.20;99.90;10.20;98590.00;;;;4633247;30;87258;-54
2022/04/15 06:52:18;;;;;;;16.80;4.40;;;9.20;99.90;10.20;98592.00;;;;4639234;30;87916;-57
2022/04/15 06:54:44;;;;;;;13.38;4.03;;;9.10;99.90;10.30;98588.00;;;;4638094;30;88368;-55
2022/04/15 06:57:10;;;;;;;12.02;4.35;;;9.20;99.90;10.30;98575.00;;;;4639739;30;87066;-55
2022/04/15 06:59:38;;;;;;;19.45;4.30;;;9.40;99.90;10.30;98590.00;;;;4640222;30;88820;-55
2022/04/15 07:02:05;;;;;;;26.50;4.65;;;9.30;99.90;10.40;98587.00;;;;4633677;30;87064;-55
2022/04/15 07:04:34;;;;;;;18.73;4.97;;;9.40;99.90;10.50;98572.00;;;;4634176;30;87811;-54
2022/04/15 07:07:01;;;;;;;17.45;4.68;;;9.50;99.90;10.60;98578.00;;;;4632551;30;87992;-57
2022/04/15 07:09:27;;;;;;;19.58;4.20;;;9.60;99.90;10.70;98579.00;;;;4632125;30;88190;-57
2022/04/15 07:11:54;;;;;;;20.20;4.53;;;9.70;99.90;10.90;98580.00;;;;4633572;30;87927;-57
2022/04/15 07:14:20;;;;;;;19.30;4.43;;;9.80;99.90;10.90;98586.00;;;;4636532;30;87718;-57
2022/04/15 07:16:46;;;;;;;17.65;4.88;;;9.80;99.90;11.00;98571.00;;;;4643277;30;87030;-59
2022/04/15 07:19:12;;;;;;;15.32;5.38;;;9.90;99.90;11.00;98575.00;;;;4636528;30;87098;-56
2022/04/15 07:21:42;;;;;;;11.82;5.25;;;9.90;99.90;11.00;98565.00;;;;4649296;30;87163;-57
2022/04/15 07:24:09;;;;;;;14.93;4.40;;;10.00;99.90;10.90;98565.00;;;;4645828;30;88483;-58
2022/04/15 07:26:35;;;;;;;15.45;4.13;;;9.90;99.90;11.00;98568.00;;;;4634803;30;88081;-59
2022/04/15 07:29:01;;;;;;;12.02;4.30;;;10.00;99.90;11.10;98569.00;;;;4633316;30;87069;-57
2022/04/15 07:31:28;;;;;;;24.08;4.65;;;10.10;99.90;11.20;98575.00;;;;4630027;30;88804;-55
2022/04/15 07:33:54;;;;;;;17.15;4.82;;;10.10;99.90;11.40;98566.00;;;;4631904;30;88313;-59
2022/04/15 07:39:05;;;;;;;14.55;4.63;;;10.60;99.90;11.90;98566.00;;;;4627951;30;87484;-58
2022/04/15 07:41:31;;;;;;;18.15;4.97;;;10.90;99.90;12.00;98567.00;;;;4632917;30;87598;-58
2022/04/15 07:43:57;;;;;;;14.27;4.80;;;11.00;99.40;12.10;98561.00;;;;4634298;30;87376;-58
2022/04/15 07:46:24;;;;;;;20.08;4.80;;;11.10;99.00;12.30;98555.00;;;;4634845;30;87214;-58
2022/04/15 07:48:50;;;;;;;17.75;4.88;;;11.30;98.00;12.30;98560.00;;;;4641781;30;87184;-57
2022/04/15 07:51:16;;;;;;;10.45;4.55;;;11.20;98.50;12.10;98569.00;;;;4638156;30;87723;-58
2022/04/15 07:53:42;;;;;;;12.88;4.05;;;11.00;96.60;12.30;98562.00;;;;4632348;30;87067;-58
2022/04/15 07:56:08;;;;;;;14.18;4.40;;;11.20;97.20;12.50;98566.00;;;;4638481;30;87044;-56
2022/04/15 07:58:35;;;;;;;13.80;4.25;;;11.50;97.10;12.60;98564.00;;;;4637672;30;88457;-55
2022/04/15 08:01:01;;;;;;;9.88;3.55;;;11.70;95.70;12.70;98564.00;;;;4640628;30;88766;-57
2022/04/15 08:03:27;;;;;;;11.88;3.60;;;11.70;95.00;12.80;98556.00;;;;4637982;30;87571;-57
2022/04/15 08:05:54;;;;;;;17.10;3.88;;;11.80;94.80;12.90;98562.00;;;;4635737;30;87036;-58
2022/04/15 08:08:21;;;;;;;20.02;3.72;;;11.80;94.10;13.00;98551.00;;;;4648084;30;87867;-57
2022/04/15 08:10:51;;;;;;;9.55;2.80;;;12.00;91.80;12.70;98557.00;;;;4642082;30;87627;-54
2022/04/15 08:13:18;;;;;;;10.95;3.60;;;11.80;90.80;13.00;98554.00;;;;4640320;30;87544;-56
2022/04/15 08:15:44;;;;;;;16.17;3.42;;;11.90;90.10;13.20;98560.00;;;;4632980;30;86362;-56
2022/04/15 08:18:10;;;;;;;10.48;3.45;;;12.10;90.80;13.10;98553.00;;;;4636978;30;87040;-54
2022/04/15 08:20:36;;;;;;;5.75;2.67;;;12.20;90.70;13.10;98552.00;;;;4639114;30;87771;-56
2022/04/15 08:23:03;;;;;;;7.05;2.63;;;12.00;88.80;13.00;98554.00;;;;4639501;30;88583;-55
2022/04/15 08:25:30;;;;;;;11.77;2.72;;;11.90;87.40;12.90;98550.00;;;;4654549;30;87272;-55
2022/04/15 08:27:57;;;;;;;9.05;2.58;;;11.80;90.30;12.80;98557.00;;;;4638375;30;87343;-55
2022/04/15 08:30:24;;;;;;;11.13;3.50;;;11.80;90.90;12.90;98550.00;;;;4631969;30;88962;-56
2022/04/15 08:32:51;;;;;;;12.80;2.88;;;11.80;91.50;12.80;98555.00;;;;4632380;30;87479;-56
2022/04/15 08:35:18;;;;;;;13.70;2.58;;;11.70;92.00;12.70;98548.00;;;;4632992;30;87151;-55
2022/04/15 08:37:44;;;;;;;10.43;2.65;;;11.70;92.50;12.60;98552.00;;;;4633469;30;87473;-57
2022/04/15 08:40:13;;;;;;;10.35;2.70;;;11.60;90.50;12.60;98539.00;;;;4633801;30;87072;-55
2022/04/15 08:42:44;;;;;;;10.13;2.88;;;11.50;89.60;12.80;98551.00;;;;4632876;30;86897;-56
2022/04/15 08:45:14;;;;;;;7.88;3.33;;;11.70;91.70;13.00;98546.00;;;;4629589;30;87008;-53
2022/04/15 08:47:41;;;;;;;14.30;3.00;;;12.00;92.60;13.20;98545.00;;;;4630531;30;88072;-56
2022/04/15 08:50:13;;;;;;;5.60;2.10;;;12.20;92.90;13.30;98549.00;;;;4638189;30;87763;-53
2022/04/15 08:52:40;;;;;;;14.60;3.10;;;12.20;88.90;13.30;98542.00;;;;4639677;30;87357;-53
2022/04/15 08:55:07;;;;;;;7.88;2.88;;;12.30;90.00;13.50;98540.00;;;;4634074;30;86935;-57
2022/04/15 08:57:33;;;;;;;8.88;2.38;;;12.50;90.60;13.60;98547.00;;;;4636005;30;87213;-58
2022/04/15 09:00:00;;;;;;;7.65;2.42;;;12.60;88.20;13.70;98545.00;;;;4633057;30;87636;-56
2022/04/15 09:02:37;;;;;;;4.40;2.63;;;12.70;87.80;13.80;98543.00;;;;4640113;30;87491;-56
2022/04/15 09:05:07;;;;;;;7.63;1.38;;;12.70;86.30;13.60;98556.00;;;;4629801;30;88162;-54
2022/04/15 09:07:36;;;;;;;2.15;1.10;;;12.40;84.60;13.40;98549.00;;;;4632834;30;87509;-54
2022/04/15 09:10:05;;;;;;;3.58;1.40;;;12.20;84.40;13.20;98550.00;;;;4632516;30;88212;-53
2022/04/15 09:12:35;;;;;;;7.47;1.38;;;12.10;86.00;13.10;98544.00;;;;4635968;30;88046;-55
2022/04/15 09:15:17;;;;;;;5.05;1.38;;;11.90;87.20;12.90;98549.00;;;;4636945;30;87023;-53
2022/04/15 09:17:49;;;;;;;5.22;1.27;;;11.90;86.20;12.80;98550.00;;;;4633588;30;87135;-56
2022/04/15 09:20:16;;;;;;;5.18;1.33;;;11.80;87.50;12.40;98551.00;;;;4632671;30;89403;-56
2022/04/15 09:22:43;;;;;;;1.67;1.20;;;11.40;90.60;12.40;98543.00;;;;4632856;30;87654;-56
2022/04/15 09:25:11;;;;;;;2.72;1.30;;;11.30;91.20;12.30;98544.00;;;;4642378;30;87512;-54
2022/04/15 09:27:38;;;;;;;5.28;1.85;;;11.20;92.20;12.10;98537.00;;;;4633263;30;87333;-53
2022/04/15 09:30:06;;;;;;;6.38;1.75;;;11.10;93.40;12.10;98529.00;;;;4632567;30;86322;-55
2022/04/15 09:32:32;;;;;;;11.60;2.15;;;11.10;94.00;12.30;98539.00;;;;4633152;30;87122;-55
2022/04/15 09:35:08;;;;;;;6.05;1.63;;;11.40;94.00;12.20;98524.00;;;;4631673;30;88606;-57
2022/04/15 09:37:43;;;;;;;5.72;1.90;;;11.20;93.90;12.20;98536.00;;;;4631561;30;87970;-54
2022/04/15 09:40:16;;;;;;;6.50;1.80;;;11.20;94.70;12.20;98529.00;;;;4633387;30;87669;-56
2022/04/15 09:42:53;;;;;;;1.85;1.27;;;11.20;94.80;12.20;98527.00;;;;4633551;30;88369;-61
2022/04/15 09:45:31;;;;;;;3.35;1.52;;;11.30;94.80;12.20;98538.00;;;;4633538;30;86958;-62
2022/04/15 09:48:02;;;;;;;4.05;1.20;;;11.20;94.50;12.00;98529.00;;;;4633147;30;86940;-62
2022/04/15 09:50:30;;;;;;;10.18;1.80;;;11.10;95.00;11.90;98536.00;;;;4633041;30;89579;-62
2022/04/15 09:53:12;;;;;;;7.45;1.63;;;11.00;96.00;12.10;98526.00;;;;4633189;30;87269;-61
2022/04/15 09:55:41;;;;;;;4.25;1.58;;;11.10;95.10;12.10;98539.00;;;;4633412;30;86361;-62
2022/04/15 09:58:18;;;;;;;3.88;1.23;;;11.10;94.60;12.00;98535.00;;;;4632265;30;87315;-61
2022/04/15 10:00:51;;;;;;;2.22;1.08;;;11.00;95.00;11.90;98529.00;;;;4633185;30;88367;-62
2022/04/15 10:03:27;;;;;;;2.92;1.30;;;10.90;95.80;11.70;98534.00;;;;4632641;30;89092;-63
2022/04/15 10:05:58;;;;;;;5.55;1.63;;;10.70;96.60;11.40;98529.00;;;;4632373;30;87437;-61
2022/04/15 10:08:26;;;;;;;5.25;1.50;;;10.40;97.60;11.30;98534.00;;;;4633216;30;87482;-61
2022/04/15 10:10:55;;;;;;;6.45;1.60;;;10.30;98.00;11.40;98530.00;;;;4632944;30;87545;-62
2022/04/15 10:13:26;;;;;;;4.60;1.40;;;10.50;98.30;11.30;98536.00;;;;4641562;30;88499;-62
2022/04/15 10:15:54;;;;;;;2.88;1.35;;;10.40;98.70;11.40;98535.00;;;;4632895;30;87123;-63
2022/04/15 10:18:22;;;;;;;4.93;1.23;;;10.40;98.60;11.30;98534.00;;;;4632287;30;86897;-62
2022/04/15 10:20:51;;;;;;;3.60;1.35;;;10.50;98.30;11.30;98521.00;;;;4633472;30;87127;-61
2022/04/15 10:23:17;;;;;;;8.88;1.92;;;10.50;99.30;11.30;98522.00;;;;4632903;30;86987;-61
2022/04/15 10:25:46;;;;;;;10.02;2.00;;;10.50;99.60;11.50;98522.00;;;;4635736;30;88723;-63
2022/04/15 10:28:17;;;;;;;5.65;1.60;;;10.50;99.90;11.70;98519.00;;;;4627646;30;88415;-62
2022/04/15 10:31:24;;;;;;;3.27;1.93;;;10.70;99.50;11.60;98515.00;;;;4628430;30;88342;-62
2022/04/15 10:33:51;;;;;;;4.22;1.50;;;10.70;99.30;11.80;98514.00;;;;4618545;30;87510;-62
2022/04/15 10:36:24;;;;;;;11.25;2.20;;;10.80;98.40;11.70;98525.00;;;;4626234;30;87213;-62
2022/04/15 10:39:09;;;;;;;6.40;1.70;;;10.70;99.00;11.70;98514.00;;;;4614330;30;87432;-63
2022/04/15 10:41:41;;;;;;;7.10;2.30;;;10.70;99.20;11.70;98516.00;;;;4628494;30;87676;-61
2022/04/15 10:44:23;;;;;;;4.57;1.77;;;10.70;99.30;11.90;98505.00;;;;4631311;30;88437;-62
2022/04/15 10:46:49;;;;;;;4.90;1.95;;;10.80;99.00;11.80;98503.00;;;;4631804;30;86681;-62
2022/04/15 10:49:27;;;;;;;8.20;2.20;;;10.80;98.90;11.80;98506.00;;;;4631259;30;88607;-63
2022/04/15 10:51:59;;;;;;;3.85;1.60;;;10.80;99.40;11.80;98503.00;;;;4631663;30;88317;-63
2022/04/15 10:54:35;;;;;;;4.72;1.92;;;10.90;98.80;11.90;98505.00;;;;4628956;30;88593;-62
2022/04/15 10:57:18;;;;;;;4.82;1.65;;;10.90;99.00;12.10;98487.00;;;;4623918;30;87074;-60
2022/04/15 11:02:46;;;;;;;11.60;1.67;;;11.30;98.20;12.30;98490.00;;;;4631773;30;87619;-61
2022/04/15 11:05:30;;;;;;;7.60;2.60;;;11.40;98.10;12.50;98480.00;;;;4629827;30;88590;-62
2022/04/15 11:08:03;;;;;;;5.05;1.50;;;11.50;97.30;12.80;98472.00;;;;4629233;30;87289;-62